createdAt,value
2019-05-11T00:00:34.288Z,9.90
2019-05-11T00:03:03.676Z,9.13
2019-05-11T00:05:32.953Z,10.93
2019-05-11T00:08:02.299Z,9.33
2019-05-11T00:10:31.482Z,9.53
2019-05-11T00:13:00.707Z,9.23
2019-05-11T00:15:29.965Z,9.27
2019-05-11T00:17:59.242Z,9.50
2019-05-11T00:20:28.617Z,9.27
2019-05-11T00:22:58.021Z,10.90
2019-05-11T00:25:27.253Z,9.60
2019-05-11T00:27:56.543Z,9.50
2019-05-11T00:30:25.990Z,9.10
2019-05-11T00:32:55.271Z,9.97
2019-05-11T00:35:24.607Z,9.27
2019-05-11T00:37:54.089Z,9.30
2019-05-11T00:40:23.408Z,9.93
2019-05-11T00:42:52.801Z,9.53
2019-05-11T00:45:22.071Z,9.57
2019-05-11T00:47:51.509Z,9.80
2019-05-11T00:50:20.733Z,10.00
2019-05-11T00:52:49.967Z,10.03
2019-05-11T00:55:19.178Z,9.77
2019-05-11T00:57:48.372Z,9.33
2019-05-11T01:00:17.629Z,8.90
2019-05-11T01:02:46.878Z,9.23
2019-05-11T01:05:16.148Z,8.83
2019-05-11T01:07:45.391Z,8.83
2019-05-11T01:10:25.265Z,8.80
2019-05-11T01:12:43.921Z,9.03
2019-05-11T01:15:13.212Z,9.03
2019-05-11T01:17:42.397Z,9.37
2019-05-11T01:20:11.622Z,9.13
2019-05-11T01:22:40.849Z,9.07
2019-05-11T01:25:10.047Z,9.17
2019-05-11T01:27:39.385Z,10.27
2019-05-11T01:30:08.711Z,10.13
2019-05-11T01:32:38.023Z,9.37
2019-05-11T01:35:07.326Z,8.87
2019-05-11T01:37:36.593Z,9.30
2019-05-11T01:40:05.895Z,9.00
2019-05-11T01:42:35.135Z,9.00
2019-05-11T01:45:04.596Z,10.00
2019-05-11T01:47:33.810Z,8.63
2019-05-11T01:50:03.079Z,9.77
2019-05-11T01:52:32.317Z,9.00
2019-05-11T01:55:01.550Z,9.00
2019-05-11T01:57:30.776Z,8.90
2019-05-11T02:00:00.119Z,9.83
2019-05-11T02:02:29.346Z,8.53
2019-05-11T02:05:16.643Z,9.67
2019-05-11T02:07:45.911Z,9.03
2019-05-11T02:10:15.139Z,9.27
2019-05-11T02:12:44.337Z,8.97
2019-05-11T02:15:13.541Z,8.57
2019-05-11T02:17:42.731Z,9.03
2019-05-11T02:20:11.995Z,9.57
2019-05-11T02:22:41.207Z,9.50
2019-05-11T02:25:10.499Z,9.30
2019-05-11T02:27:39.710Z,9.53
2019-05-11T02:30:09.033Z,10.13
2019-05-11T02:32:38.223Z,10.90
2019-05-11T02:35:07.447Z,10.80
2019-05-11T02:37:36.692Z,10.50
2019-05-11T02:40:06.227Z,9.60
2019-05-11T02:42:35.472Z,10.50
2019-05-11T02:45:05.028Z,10.57
2019-05-11T02:47:34.267Z,9.90
2019-05-11T02:50:03.829Z,10.20
2019-05-11T02:52:32.947Z,10.03
2019-05-11T02:55:02.320Z,10.10
2019-05-11T02:57:31.526Z,10.10
2019-05-11T03:00:00.730Z,10.17
2019-05-11T03:02:29.903Z,9.17
2019-05-11T03:04:59.102Z,9.50
2019-05-11T03:07:28.345Z,9.23
2019-05-11T03:09:57.512Z,9.13
2019-05-11T03:12:26.746Z,9.13
2019-05-11T03:14:55.934Z,9.37
2019-05-11T03:17:29.778Z,8.03
2019-05-11T03:19:59.015Z,8.27
2019-05-11T03:22:28.245Z,8.23
2019-05-11T03:24:57.492Z,8.43
2019-05-11T03:27:26.703Z,8.03
2019-05-11T03:30:00.299Z,7.63
2019-05-11T03:32:25.091Z,8.20
2019-05-11T03:34:54.286Z,7.70
2019-05-11T03:37:23.558Z,6.90
2019-05-11T03:39:52.810Z,6.77
2019-05-11T03:42:22.031Z,6.83
2019-05-11T03:44:51.316Z,6.87
2019-05-11T03:47:20.532Z,7.77
2019-05-11T03:49:49.720Z,6.23
2019-05-11T03:52:18.915Z,6.73
2019-05-11T03:54:48.163Z,6.47
2019-05-11T03:57:17.401Z,6.17
2019-05-11T03:59:46.701Z,5.97
2019-05-11T04:02:15.907Z,6.00
2019-05-11T04:04:45.210Z,5.90
2019-05-11T04:07:14.467Z,6.37
2019-05-11T04:09:43.720Z,5.80
2019-05-11T04:12:32.887Z,5.80
2019-05-11T04:14:43.762Z,5.83
2019-05-11T04:17:12.974Z,5.77
2019-05-11T04:19:42.242Z,5.73
2019-05-11T04:22:11.566Z,5.40
2019-05-11T04:24:40.760Z,6.17
2019-05-11T04:27:10.251Z,6.00
2019-05-11T04:29:39.376Z,6.60
2019-05-11T04:32:08.600Z,5.97
2019-05-11T04:34:37.815Z,5.27
2019-05-11T04:37:07.055Z,5.37
2019-05-11T04:39:36.337Z,5.90
2019-05-11T04:42:05.547Z,5.93
2019-05-11T04:44:34.763Z,5.63
2019-05-11T04:47:04.058Z,4.97
2019-05-11T04:49:33.370Z,4.90
2019-05-11T04:52:02.653Z,4.87
2019-05-11T04:54:31.970Z,4.30
2019-05-11T04:57:01.256Z,4.30
2019-05-11T04:59:30.461Z,4.70
2019-05-11T05:01:59.659Z,3.90
2019-05-11T05:04:28.972Z,4.63
2019-05-11T05:07:00.150Z,4.30
2019-05-11T05:09:27.543Z,4.27
2019-05-11T05:11:56.615Z,4.40
2019-05-11T05:14:25.851Z,4.57
2019-05-11T05:16:55.085Z,4.33
2019-05-11T05:19:24.309Z,4.23
2019-05-11T05:21:53.510Z,4.43
2019-05-11T05:24:22.731Z,4.70
2019-05-11T05:26:52.038Z,3.73
2019-05-11T05:29:21.264Z,3.93
2019-05-11T05:31:50.511Z,4.10
2019-05-11T05:34:19.757Z,3.43
2019-05-11T05:36:49.047Z,4.23
2019-05-11T05:39:18.288Z,3.93
2019-05-11T05:41:56.554Z,4.20
2019-05-11T05:44:16.872Z,3.13
2019-05-11T05:46:46.148Z,4.20
2019-05-11T05:49:15.467Z,3.93
2019-05-11T05:51:44.745Z,3.53
2019-05-11T05:54:13.954Z,3.93
2019-05-11T05:56:43.158Z,3.80
2019-05-11T05:59:12.469Z,3.87
2019-05-11T06:01:41.668Z,3.67
2019-05-11T06:04:10.901Z,3.37
2019-05-11T06:06:40.142Z,3.63
2019-05-11T06:09:09.437Z,3.20
2019-05-11T06:11:38.743Z,4.67
2019-05-11T06:14:07.955Z,5.40
2019-05-11T06:16:37.159Z,5.87
2019-05-11T06:19:06.401Z,4.03
2019-05-11T06:21:35.639Z,3.57
2019-05-11T06:24:07.608Z,3.67
2019-05-11T06:26:34.066Z,3.87
2019-05-11T06:29:03.289Z,3.67
2019-05-11T06:31:33.299Z,3.80
2019-05-11T06:34:02.536Z,3.27
2019-05-11T06:36:31.892Z,3.47
2019-05-11T06:39:01.043Z,3.23
2019-05-11T06:41:30.311Z,3.70
2019-05-11T06:44:02.174Z,3.10
2019-05-11T06:46:28.786Z,8.97
2019-05-11T06:48:58.070Z,3.53
2019-05-11T06:51:27.290Z,2.90
2019-05-11T06:53:56.729Z,3.13
2019-05-11T06:56:26.006Z,3.50
2019-05-11T06:58:55.205Z,3.50
2019-05-11T07:01:24.555Z,3.27
2019-05-11T07:03:53.730Z,3.97
2019-05-11T07:06:26.879Z,6.40
2019-05-11T07:08:52.256Z,3.70
2019-05-11T07:11:21.577Z,3.37
2019-05-11T07:13:50.787Z,3.13
2019-05-11T07:16:20.001Z,3.03
2019-05-11T07:18:49.236Z,2.70
2019-05-11T07:21:18.522Z,2.60
2019-05-11T07:23:47.719Z,2.50
2019-05-11T07:26:16.935Z,4.47
2019-05-11T07:28:46.178Z,2.90
2019-05-11T07:31:15.423Z,2.87
2019-05-11T07:33:44.634Z,2.80
2019-05-11T07:36:13.966Z,3.03
2019-05-11T07:38:43.215Z,3.53
2019-05-11T07:41:12.438Z,2.63
2019-05-11T07:43:41.646Z,3.37
2019-05-11T07:46:10.859Z,5.23
2019-05-11T07:48:40.053Z,5.90
2019-05-11T07:51:09.242Z,3.07
2019-05-11T07:53:38.424Z,2.83
2019-05-11T07:56:08.296Z,2.80
2019-05-11T07:58:38.710Z,2.50
2019-05-11T08:01:08.510Z,2.80
2019-05-11T08:03:35.419Z,2.87
2019-05-11T08:06:04.659Z,3.40
2019-05-11T08:08:33.861Z,2.67
2019-05-11T08:11:03.069Z,2.43
2019-05-11T08:13:32.275Z,2.60
2019-05-11T08:16:01.562Z,3.43
2019-05-11T08:18:30.774Z,2.77
2019-05-11T08:21:00.017Z,3.17
2019-05-11T08:23:29.242Z,3.10
2019-05-11T08:25:58.569Z,2.80
2019-05-11T08:28:28.800Z,2.73
2019-05-11T08:30:57.892Z,2.83
2019-05-11T08:33:28.407Z,3.37
2019-05-11T08:35:58.077Z,3.27
2019-05-11T08:38:24.938Z,3.60
2019-05-11T08:40:54.148Z,3.73
2019-05-11T08:43:23.448Z,3.53
2019-05-11T08:45:52.650Z,3.90
2019-05-11T08:48:21.893Z,3.33
2019-05-11T08:50:51.088Z,3.77
2019-05-11T08:53:20.330Z,6.00
2019-05-11T08:55:49.510Z,6.03
2019-05-11T08:58:19.615Z,4.50
2019-05-11T09:00:48.634Z,4.50
2019-05-11T09:03:18.065Z,4.13
2019-05-11T09:05:48.560Z,4.20
2019-05-11T09:08:18.836Z,4.47
2019-05-11T09:10:48.824Z,4.70
2019-05-11T09:13:18.385Z,4.47
2019-05-11T09:15:45.125Z,5.37
2019-05-11T09:18:14.342Z,4.37
2019-05-11T09:20:43.552Z,4.47
2019-05-11T09:23:12.809Z,4.17
2019-05-11T09:25:42.070Z,4.17
2019-05-11T09:28:11.337Z,3.90
2019-05-11T09:30:40.575Z,3.97
2019-05-11T09:33:09.798Z,4.23
2019-05-11T09:35:47.592Z,5.30
2019-05-11T09:38:08.252Z,4.07
2019-05-11T09:40:38.575Z,3.90
2019-05-11T09:43:08.522Z,3.97
2019-05-11T09:45:45.774Z,3.73
2019-05-11T09:48:05.455Z,3.87
2019-05-11T09:50:34.691Z,3.90
2019-05-11T09:53:03.991Z,3.73
2019-05-11T09:55:33.284Z,4.03
2019-05-11T09:58:02.545Z,3.43
2019-05-11T10:00:31.813Z,3.27
2019-05-11T10:03:01.061Z,4.00
2019-05-11T10:05:30.282Z,3.73
2019-05-11T10:07:59.593Z,3.83
2019-05-11T10:10:29.131Z,3.97
2019-05-11T10:12:59.046Z,8.07
2019-05-11T10:15:27.961Z,3.80
2019-05-11T10:17:59.106Z,3.87
2019-05-11T10:20:28.633Z,4.07
2019-05-11T10:22:57.944Z,4.33
2019-05-11T10:25:28.510Z,4.30
2019-05-11T10:27:57.849Z,4.43
2019-05-11T10:30:25.065Z,3.93
2019-05-11T10:32:54.304Z,4.20
2019-05-11T10:35:23.602Z,4.50
2019-05-11T10:37:52.822Z,3.73
2019-05-11T10:40:22.122Z,4.20
2019-05-11T10:42:51.332Z,3.77
2019-05-11T10:45:20.548Z,5.03
2019-05-11T10:47:53.422Z,4.30
2019-05-11T10:50:19.191Z,3.90
2019-05-11T10:52:48.602Z,4.00
2019-05-11T10:55:19.361Z,3.93
2019-05-11T10:57:48.738Z,4.37
2019-05-11T11:00:17.820Z,4.40
2019-05-11T11:02:47.694Z,3.97
2019-05-11T11:05:15.217Z,3.90
2019-05-11T11:07:44.544Z,3.70
2019-05-11T11:10:13.751Z,3.73
2019-05-11T11:12:42.960Z,3.57
2019-05-11T11:15:12.198Z,3.87
2019-05-11T11:17:41.401Z,6.13
2019-05-11T11:20:10.628Z,4.67
2019-05-11T11:22:43.897Z,3.77
2019-05-11T11:25:09.197Z,3.93
2019-05-11T11:27:38.419Z,4.17
2019-05-11T11:30:09.126Z,3.80
2019-05-11T11:32:38.318Z,4.23
2019-05-11T11:35:08.241Z,3.67
2019-05-11T11:37:35.430Z,3.60
2019-05-11T11:40:05.552Z,3.80
2019-05-11T11:42:34.808Z,3.43
2019-05-11T11:45:04.595Z,3.60
2019-05-11T11:47:33.832Z,3.97
2019-05-11T11:50:03.165Z,3.87
2019-05-11T11:52:32.362Z,3.47
2019-05-11T11:55:01.581Z,5.43
2019-05-11T11:57:30.864Z,5.00
2019-05-11T12:00:00.086Z,4.20
2019-05-11T12:02:29.300Z,4.80
2019-05-11T12:04:58.526Z,4.17
2019-05-11T12:07:28.515Z,4.07
2019-05-11T12:09:58.754Z,3.90
2019-05-11T12:12:27.963Z,3.80
2019-05-11T12:14:55.498Z,3.93
2019-05-11T12:17:24.755Z,4.10
2019-05-11T12:19:54.070Z,4.33
2019-05-11T12:22:23.402Z,3.97
2019-05-11T12:24:52.666Z,4.20
2019-05-11T12:27:21.900Z,4.13
2019-05-11T12:29:51.125Z,4.20
2019-05-11T12:32:24.310Z,9.73
2019-05-11T12:34:53.541Z,5.13
2019-05-11T12:37:22.850Z,4.00
2019-05-11T12:39:52.174Z,4.60
2019-05-11T12:42:21.522Z,4.40
2019-05-11T12:44:50.794Z,4.17
2019-05-11T12:47:24.858Z,3.90
2019-05-11T12:49:49.364Z,5.23
2019-05-11T12:52:18.693Z,4.43
2019-05-11T12:54:48.044Z,4.60
2019-05-11T12:57:18.685Z,5.10
2019-05-11T12:59:48.688Z,5.07
2019-05-11T13:02:15.778Z,4.97
2019-05-11T13:04:45.070Z,4.83
2019-05-11T13:07:16.599Z,5.57
2019-05-11T13:09:43.676Z,9.70
2019-05-11T13:12:12.914Z,5.07
2019-05-11T13:14:42.172Z,5.47
2019-05-11T13:17:11.480Z,5.40
2019-05-11T13:19:40.807Z,5.50
2019-05-11T13:22:10.025Z,4.37
2019-05-11T13:24:39.283Z,4.63
2019-05-11T13:27:08.522Z,4.37
2019-05-11T13:29:37.932Z,4.60
2019-05-11T13:32:07.830Z,4.43
2019-05-11T13:34:38.592Z,4.20
2019-05-11T13:37:08.686Z,4.17
2019-05-11T13:39:34.686Z,4.60
2019-05-11T13:42:03.934Z,4.03
2019-05-11T13:44:33.123Z,4.37
2019-05-11T13:47:02.394Z,4.20
2019-05-11T13:49:32.574Z,4.13
2019-05-11T13:52:01.132Z,3.70
2019-05-11T13:54:30.554Z,4.07
2019-05-11T13:57:00.047Z,3.87
2019-05-11T13:59:29.302Z,4.67
2019-05-11T14:01:58.595Z,7.80
2019-05-11T14:04:28.235Z,5.80
2019-05-11T14:06:58.586Z,3.90
2019-05-11T14:09:28.691Z,3.80
2019-05-11T14:11:55.492Z,4.00
2019-05-11T14:14:24.788Z,3.80
2019-05-11T14:16:54.089Z,4.03
2019-05-11T14:19:23.435Z,3.80
2019-05-11T14:21:52.648Z,3.30
2019-05-11T14:24:22.036Z,3.60
2019-05-11T14:26:51.282Z,3.77
2019-05-11T14:29:20.607Z,3.63
2019-05-11T14:31:49.878Z,3.80
2019-05-11T14:34:19.206Z,4.10
2019-05-11T14:36:48.490Z,3.77
2019-05-11T14:39:18.937Z,3.80
2019-05-11T14:41:48.731Z,3.80
2019-05-11T14:44:18.135Z,3.43
2019-05-11T14:46:47.718Z,3.67
2019-05-11T14:49:14.822Z,3.70
2019-05-11T14:52:02.329Z,4.30
2019-05-11T14:54:49.959Z,4.97
2019-05-11T14:57:39.698Z,4.23
2019-05-11T15:00:25.455Z,3.47
2019-05-11T15:03:13.135Z,3.37
2019-05-11T15:06:00.781Z,3.67
2019-05-11T15:08:49.583Z,3.40
2019-05-11T15:11:38.799Z,3.50
2019-05-11T15:14:25.798Z,3.77
2019-05-11T15:17:13.552Z,4.27
2019-05-11T15:20:01.090Z,3.30
2019-05-11T15:22:49.072Z,3.40
2019-05-11T15:25:38.202Z,3.77
2019-05-11T15:28:24.910Z,4.03
2019-05-11T15:31:12.480Z,5.00
2019-05-11T15:34:00.037Z,3.80
2019-05-11T15:36:49.099Z,3.20
2019-05-11T15:39:35.196Z,3.63
2019-05-11T15:42:22.593Z,3.43
2019-05-11T15:45:11.030Z,3.30
2019-05-11T15:47:59.074Z,3.33
2019-05-11T15:50:48.462Z,3.60
2019-05-11T15:53:34.192Z,3.23
2019-05-11T15:56:21.900Z,3.40
2019-05-11T15:59:09.976Z,3.67
2019-05-11T16:01:58.275Z,3.80
2019-05-11T16:04:45.987Z,3.47
2019-05-11T16:07:33.505Z,3.50
2019-05-11T16:10:21.647Z,3.33
2019-05-11T16:13:09.434Z,3.20
2019-05-11T16:15:57.766Z,4.57
2019-05-11T16:18:44.927Z,3.67
2019-05-11T16:21:32.655Z,2.90
2019-05-11T16:24:20.217Z,3.63
2019-05-11T16:27:08.810Z,3.03
2019-05-11T16:29:56.070Z,3.37
2019-05-11T16:32:44.407Z,3.10
2019-05-11T16:35:31.846Z,3.12
2019-05-11T16:38:20.170Z,5.35
2019-05-11T16:41:09.184Z,3.67
2019-05-11T16:43:58.365Z,3.47
2019-05-11T16:46:44.102Z,3.30
2019-05-11T16:49:32.552Z,3.47
2019-05-11T16:52:19.679Z,3.33
2019-05-11T16:55:08.014Z,3.50
2019-05-11T16:57:58.622Z,3.67
2019-05-11T17:00:43.495Z,3.63
2019-05-11T17:03:31.188Z,3.60
2019-05-11T17:06:19.710Z,3.60
2019-05-11T17:09:08.811Z,3.33
2019-05-11T17:11:55.015Z,3.53
2019-05-11T17:15:01.167Z,2.80
2019-05-11T17:17:49.534Z,3.23
2019-05-11T17:20:37.157Z,3.30
2019-05-11T17:23:25.248Z,3.33
2019-05-11T17:26:12.938Z,3.90
2019-05-11T17:29:00.882Z,6.13
2019-05-11T17:31:49.048Z,3.27
2019-05-11T17:34:38.126Z,3.47
2019-05-11T17:37:24.948Z,2.80
2019-05-11T17:40:12.738Z,3.23
2019-05-11T17:43:00.893Z,3.10
2019-05-11T17:45:49.141Z,3.10
2019-05-11T17:48:38.797Z,3.13
2019-05-11T17:51:25.213Z,2.93
2019-05-11T17:54:12.444Z,3.10
2019-05-11T17:56:59.873Z,3.73
2019-05-11T17:59:47.711Z,3.40
2019-05-11T18:02:35.378Z,2.63
2019-05-11T18:05:22.852Z,2.97
2019-05-11T18:08:10.713Z,3.33
2019-05-11T18:10:58.803Z,3.27
2019-05-11T18:13:48.248Z,2.40
2019-05-11T18:16:34.817Z,2.90
2019-05-11T18:19:31.168Z,2.50
2019-05-11T18:22:18.880Z,1.73
2019-05-11T18:25:08.643Z,2.73
2019-05-11T18:27:54.514Z,2.40
2019-05-11T18:30:42.126Z,3.73
2019-05-11T18:33:29.912Z,15.03
2019-05-11T18:36:18.455Z,2.47
2019-05-11T18:39:07.464Z,2.20
2019-05-11T18:41:55.442Z,2.03
2019-05-11T18:44:43.478Z,2.17
2019-05-11T18:47:31.110Z,2.60
2019-05-11T18:50:30.057Z,1.40
2019-05-11T18:53:09.161Z,3.00
2019-05-11T18:55:54.848Z,1.67
2019-05-11T18:58:43.111Z,1.60
2019-05-11T19:01:31.238Z,1.90
2019-05-11T19:04:18.838Z,1.50
2019-05-11T19:07:16.166Z,2.03
2019-05-11T19:09:54.000Z,1.83
2019-05-11T19:12:42.355Z,2.13
2019-05-11T19:15:30.418Z,2.27
2019-05-11T19:18:17.984Z,2.40
2019-05-11T19:21:05.502Z,2.33
2019-05-11T19:23:53.442Z,2.40
2019-05-11T19:26:41.666Z,2.30
2019-05-11T19:29:29.178Z,2.07
2019-05-11T19:32:19.133Z,2.30
2019-05-11T19:35:05.209Z,2.50
2019-05-11T19:37:52.609Z,2.17
2019-05-11T19:40:40.727Z,2.40
2019-05-11T19:43:28.836Z,1.93
2019-05-11T19:46:18.371Z,2.10
2019-05-11T19:49:04.876Z,2.50
2019-05-11T19:51:52.347Z,1.93
2019-05-11T19:54:40.464Z,2.73
2019-05-11T19:57:28.622Z,3.53
2019-05-11T20:00:18.449Z,3.00
2019-05-11T20:03:04.785Z,5.27
2019-05-11T20:05:52.796Z,2.37
2019-05-11T20:08:40.652Z,2.50
2019-05-11T20:11:28.258Z,2.50
2019-05-11T20:14:16.321Z,2.37
2019-05-11T20:17:03.999Z,2.80
2019-05-11T20:19:51.791Z,2.53
2019-05-11T20:22:42.666Z,2.40
2019-05-11T20:25:30.539Z,2.40
2019-05-11T20:28:18.453Z,2.37
2019-05-11T20:31:07.869Z,2.50
2019-05-11T20:33:53.574Z,2.90
2019-05-11T20:36:41.657Z,2.63
2019-05-11T20:39:29.325Z,2.20
2019-05-11T20:42:18.232Z,2.77
2019-05-11T20:45:07.735Z,3.10
2019-05-11T20:47:53.183Z,2.60
2019-05-11T20:50:40.776Z,2.70
2019-05-11T20:53:28.944Z,3.00
2019-05-11T20:56:17.856Z,3.07
2019-05-11T20:59:04.865Z,2.80
2019-05-11T21:01:52.637Z,2.47
2019-05-11T21:04:40.286Z,2.13
2019-05-11T21:07:28.571Z,2.17
2019-05-11T21:10:16.308Z,2.60
2019-05-11T21:13:04.723Z,3.70
2019-05-11T21:15:52.298Z,2.30
2019-05-11T21:18:40.566Z,2.60
2019-05-11T21:21:30.446Z,2.73
2019-05-11T21:24:18.627Z,2.40
2019-05-11T21:27:04.631Z,2.67
2019-05-11T21:29:52.626Z,2.33
2019-05-11T21:32:40.449Z,3.27
2019-05-11T21:35:28.601Z,2.70
2019-05-11T21:38:17.732Z,2.20
2019-05-11T21:41:04.338Z,2.50
2019-05-11T21:43:52.242Z,2.70
2019-05-11T21:46:39.811Z,2.90
2019-05-11T21:49:27.335Z,2.60
2019-05-11T21:52:15.214Z,3.07
2019-05-11T21:55:02.619Z,2.60
2019-05-11T21:57:50.934Z,2.57
2019-05-11T22:00:39.212Z,2.50
2019-05-11T22:03:28.092Z,3.20
2019-05-11T22:06:15.534Z,2.93
2019-05-11T22:09:03.906Z,2.47
2019-05-11T22:11:52.055Z,2.80
2019-05-11T22:14:40.374Z,2.53
2019-05-11T22:17:30.874Z,2.93
2019-05-11T22:20:18.341Z,3.00
2019-05-11T22:23:03.676Z,3.03
2019-05-11T22:25:51.433Z,2.80
2019-05-11T22:28:39.578Z,3.10
2019-05-11T22:31:28.039Z,2.67
2019-05-11T22:34:14.669Z,3.33
2019-05-11T22:37:03.023Z,2.70
2019-05-11T22:39:50.917Z,3.73
2019-05-11T22:42:38.908Z,3.00
2019-05-11T22:45:27.783Z,3.13
2019-05-11T22:48:15.051Z,3.00
2019-05-11T22:51:02.841Z,3.03
2019-05-11T22:53:50.682Z,3.40
2019-05-11T22:56:38.748Z,2.83
2019-05-11T22:59:28.035Z,2.90
2019-05-11T23:02:14.369Z,3.20
2019-05-11T23:05:02.766Z,2.60
2019-05-11T23:07:50.574Z,2.80
2019-05-11T23:10:38.832Z,3.47
2019-05-11T23:13:27.866Z,3.07
2019-05-11T23:16:14.440Z,3.37
2019-05-11T23:19:02.270Z,2.90
2019-05-11T23:21:50.276Z,2.70
2019-05-11T23:24:38.641Z,3.40
2019-05-11T23:27:28.571Z,3.10
2019-05-11T23:30:14.824Z,3.57
2019-05-11T23:33:02.736Z,3.10
2019-05-11T23:35:50.392Z,3.20
2019-05-11T23:38:38.666Z,3.27
2019-05-11T23:41:28.567Z,3.07
2019-05-11T23:44:13.709Z,3.20
2019-05-11T23:47:01.205Z,3.20
2019-05-11T23:49:48.876Z,3.33
2019-05-11T23:52:38.136Z,3.60
2019-05-11T23:55:24.422Z,3.43
2019-05-11T23:58:12.631Z,2.70
